createdAt,value
2019-04-21T00:00:58.694Z,102302.41
2019-04-21T00:03:34.766Z,102300.05
2019-04-21T00:06:18.368Z,102292.83
2019-04-21T00:08:48.773Z,102293.17
2019-04-21T00:11:25.018Z,102291.30
2019-04-21T00:13:47.025Z,102285.89
2019-04-21T00:16:10.287Z,102288.33
2019-04-21T00:18:54.870Z,102290.03
2019-04-21T00:21:26.705Z,102289.45
2019-04-21T00:24:20.248Z,102285.73
2019-04-21T00:26:57.427Z,102278.42
2019-04-21T00:29:37.999Z,102282.84
2019-04-21T00:32:03.124Z,102282.27
2019-04-21T00:34:17.838Z,102278.03
2019-04-21T00:36:59.659Z,102279.56
2019-04-21T00:42:09.799Z,102279.91
2019-04-21T00:44:33.024Z,102277.59
2019-04-21T00:47:13.971Z,102272.80
2019-04-21T00:49:54.928Z,102270.98
2019-04-21T00:53:03.547Z,102265.75
2019-04-21T00:55:38.628Z,102272.01
2019-04-21T00:58:10.493Z,102272.73
2019-04-21T01:00:42.944Z,102262.45
2019-04-21T01:03:14.681Z,102267.22
2019-04-21T01:05:47.246Z,102263.21
2019-04-21T01:08:15.818Z,102260.69
2019-04-21T01:10:40.932Z,102260.14
2019-04-21T01:13:21.710Z,102261.44
2019-04-21T01:15:53.053Z,102260.45
2019-04-21T01:18:20.980Z,102259.44
2019-04-21T01:20:33.894Z,102253.83
2019-04-21T01:23:04.336Z,102262.73
2019-04-21T01:25:41.512Z,102259.44
2019-04-21T01:28:24.600Z,102260.50
2019-04-21T01:30:57.287Z,102259.75
2019-04-21T01:33:34.904Z,102250.47
2019-04-21T01:35:58.385Z,102255.01
2019-04-21T01:38:44.340Z,102246.80
2019-04-21T01:41:11.346Z,102257.88
2019-04-21T01:43:33.718Z,102249.29
2019-04-21T01:46:10.709Z,102247.95
2019-04-21T01:48:37.483Z,102248.45
2019-04-21T01:51:08.533Z,102245.28
2019-04-21T01:54:03.553Z,102249.41
2019-04-21T01:56:40.183Z,102239.06
2019-04-21T01:59:01.541Z,102232.08
2019-04-21T02:01:46.105Z,102238.66
2019-04-21T02:04:24.562Z,102235.59
2019-04-21T02:06:50.388Z,102231.42
2019-04-21T02:09:23.203Z,102233.25
2019-04-21T02:11:54.838Z,102225.80
2019-04-21T02:14:31.156Z,102230.27
2019-04-21T02:16:59.309Z,102227.41
2019-04-21T02:19:26.636Z,102218.96
2019-04-21T02:21:55.292Z,102215.76
2019-04-21T02:24:45.154Z,102211.03
2019-04-21T02:27:07.101Z,102208.77
2019-04-21T02:29:40.892Z,102201.58
2019-04-21T02:32:21.707Z,102199.33
2019-04-21T02:39:57.389Z,102191.80
2019-04-21T02:42:32.898Z,102193.36
2019-04-21T02:50:09.569Z,102187.58
2019-04-21T02:52:39.292Z,102187.27
2019-04-21T02:55:15.618Z,102182.64
2019-04-21T02:57:41.526Z,102184.09
2019-04-21T03:00:13.647Z,102175.86
2019-04-21T03:06:24.931Z,102174.66
2019-04-21T03:08:50.060Z,102174.97
2019-04-21T03:11:11.918Z,102169.84
2019-04-21T03:13:46.960Z,102169.28
2019-04-21T03:23:54.105Z,102155.64
2019-04-21T03:26:28.543Z,102149.59
2019-04-21T03:28:56.297Z,102152.67
2019-04-21T03:31:55.486Z,102145.70
2019-04-21T03:36:47.690Z,102145.98
2019-04-21T03:39:01.224Z,102141.28
2019-04-21T03:41:37.762Z,102144.14
2019-04-21T03:44:12.311Z,102138.31
2019-04-21T03:46:41.886Z,102138.25
2019-04-21T03:54:19.604Z,102132.02
2019-04-21T03:59:14.250Z,102141.31
2019-04-21T04:02:18.896Z,102142.31
2019-04-21T04:05:08.155Z,102140.61
2019-04-21T04:07:55.116Z,102142.34
2019-04-21T04:12:46.969Z,102136.78
2019-04-21T04:15:29.003Z,102133.72
2019-04-21T04:17:46.768Z,102133.72
2019-04-21T04:22:55.447Z,102138.72
2019-04-21T04:25:25.355Z,102138.83
2019-04-21T04:30:35.732Z,102137.63
2019-04-21T04:32:56.637Z,102137.30
2019-04-21T04:35:48.996Z,102135.59
2019-04-21T04:38:08.623Z,102124.69
2019-04-21T04:40:51.703Z,102132.04
2019-04-21T04:45:54.059Z,102133.42
2019-04-21T04:48:20.324Z,102128.30
2019-04-21T04:50:55.487Z,102129.52
2019-04-21T04:53:34.648Z,102123.70
2019-04-21T04:56:00.912Z,102125.30
2019-04-21T04:58:54.587Z,102127.70
2019-04-21T05:01:21.642Z,102125.73
2019-04-21T05:03:44.510Z,102124.95
2019-04-21T05:09:14.794Z,102133.28
2019-04-21T05:14:07.581Z,102129.39
2019-04-21T05:19:20.227Z,102124.63
2019-04-21T05:21:39.404Z,102111.05
2019-04-21T05:24:01.351Z,102116.11
2019-04-21T05:26:36.024Z,102112.64
2019-04-21T05:29:01.975Z,102112.85
2019-04-21T05:31:54.782Z,102114.23
2019-04-21T05:34:26.850Z,102107.52
2019-04-21T05:37:14.265Z,102116.43
2019-04-21T05:39:52.287Z,102112.45
2019-04-21T05:42:27.228Z,102112.63
2019-04-21T05:45:12.711Z,102109.08
2019-04-21T05:47:46.313Z,102115.09
2019-04-21T05:50:16.592Z,102114.25
2019-04-21T05:52:44.715Z,102107.06
2019-04-21T05:55:34.085Z,102108.19
2019-04-21T05:57:57.297Z,102110.55
2019-04-21T06:00:52.919Z,102108.98
2019-04-21T06:03:10.083Z,102111.84
2019-04-21T06:05:53.439Z,102107.31
2019-04-21T06:08:13.217Z,102108.02
2019-04-21T06:10:47.506Z,102111.10
2019-04-21T06:13:24.398Z,102102.17
2019-04-21T06:15:54.774Z,102098.68
2019-04-21T06:18:20.186Z,102105.37
2019-04-21T06:20:55.113Z,102103.64
2019-04-21T06:23:27.049Z,102108.64
2019-04-21T06:26:14.840Z,102100.70
2019-04-21T06:28:31.775Z,102102.71
2019-04-21T06:33:36.064Z,102100.81
2019-04-21T06:44:01.425Z,102092.83
2019-04-21T06:49:02.617Z,102084.99
2019-04-21T06:51:48.202Z,102086.52
2019-04-21T06:54:09.535Z,102088.23
2019-04-21T06:56:40.971Z,102088.48
2019-04-21T06:59:09.639Z,102084.09
2019-04-21T07:04:31.227Z,102084.94
2019-04-21T07:06:52.049Z,102088.36
2019-04-21T07:09:26.673Z,102082.32
2019-04-21T07:11:53.843Z,102079.41
2019-04-21T07:14:32.085Z,102077.17
2019-04-21T07:17:09.419Z,102074.33
2019-04-21T07:19:34.710Z,102072.08
2019-04-21T07:22:03.182Z,102065.97
2019-04-21T07:24:37.298Z,102072.46
2019-04-21T07:27:10.209Z,102065.23
2019-04-21T07:29:50.626Z,102067.97
2019-04-21T07:32:12.425Z,102066.77
2019-04-21T07:34:49.847Z,102054.92
2019-04-21T07:37:12.572Z,102055.14
2019-04-21T07:39:43.939Z,102055.03
2019-04-21T07:42:13.371Z,102052.19
2019-04-21T07:44:45.959Z,102050.42
2019-04-21T07:47:26.488Z,102049.87
2019-04-21T07:50:14.362Z,102044.25
2019-04-21T07:53:07.025Z,102049.81
2019-04-21T07:58:11.173Z,102040.41
2019-04-21T08:00:51.200Z,102043.16
2019-04-21T08:03:14.233Z,102037.43
2019-04-21T08:05:45.758Z,102037.72
2019-04-21T08:08:12.083Z,102035.47
2019-04-21T08:10:47.085Z,102033.70
2019-04-21T08:13:28.927Z,102038.80
2019-04-21T08:15:52.993Z,102034.34
2019-04-21T08:18:28.314Z,102035.57
2019-04-21T08:20:53.438Z,102038.39
2019-04-21T08:23:31.751Z,102036.72
2019-04-21T08:26:06.099Z,102028.58
2019-04-21T08:28:31.942Z,102032.08
2019-04-21T08:31:10.277Z,102024.31
2019-04-21T08:33:47.082Z,102024.92
2019-04-21T08:36:19.309Z,102024.88
2019-04-21T08:38:46.002Z,102024.67
2019-04-21T08:41:17.055Z,102027.47
2019-04-21T08:46:20.152Z,102017.05
2019-04-21T08:48:52.802Z,102016.38
2019-04-21T08:51:28.931Z,102013.00
2019-04-21T08:53:53.564Z,102011.58
2019-04-21T08:56:30.409Z,102018.16
2019-04-21T08:59:31.478Z,102010.67
2019-04-21T09:02:06.271Z,102013.59
2019-04-21T09:04:33.945Z,102009.84
2019-04-21T09:07:12.946Z,102001.38
2019-04-21T09:09:41.629Z,101994.48
2019-04-21T09:12:15.065Z,101998.67
2019-04-21T09:14:51.244Z,101988.41
2019-04-21T09:17:16.387Z,101994.11
2019-04-21T09:22:28.335Z,101994.79
2019-04-21T09:24:56.017Z,101987.56
2019-04-21T09:27:27.864Z,101986.03
2019-04-21T09:29:51.662Z,101979.05
2019-04-21T09:32:20.255Z,101981.41
2019-04-21T09:34:49.275Z,101979.50
2019-04-21T09:37:36.705Z,101980.39
2019-04-21T09:39:55.177Z,101974.52
2019-04-21T09:42:33.290Z,101977.29
2019-04-21T09:44:59.459Z,101971.19
2019-04-21T09:47:37.472Z,101965.27
2019-04-21T09:50:01.872Z,101963.59
2019-04-21T09:52:40.884Z,101957.22
2019-04-21T09:55:10.087Z,101956.75
2019-04-21T09:57:43.277Z,101952.63
2019-04-21T10:00:18.257Z,101947.79
2019-04-21T10:02:51.610Z,101946.57
2019-04-21T10:05:14.542Z,101949.10
2019-04-21T10:07:44.762Z,101947.94
2019-04-21T10:10:15.263Z,101944.89
2019-04-21T10:12:45.513Z,101931.10
2019-04-21T10:15:16.571Z,101936.69
2019-04-21T10:18:00.553Z,101930.30
2019-04-21T10:20:30.960Z,101930.17
2019-04-21T10:23:01.064Z,101924.16
2019-04-21T10:25:32.398Z,101923.45
2019-04-21T10:28:03.326Z,101915.01
2019-04-21T10:30:34.762Z,101912.18
2019-04-21T10:33:06.157Z,101905.82
2019-04-21T10:35:37.046Z,101908.09
2019-04-21T10:38:20.080Z,101909.28
2019-04-21T10:40:41.255Z,101905.20
2019-04-21T10:43:13.734Z,101899.88
2019-04-21T10:45:43.505Z,101900.86
2019-04-21T10:48:14.694Z,101887.91
2019-04-21T10:50:45.409Z,101884.90
2019-04-21T10:53:23.014Z,101885.16
2019-04-21T10:56:06.406Z,101882.22
2019-04-21T10:58:32.032Z,101879.48
2019-04-21T11:01:08.448Z,101874.86
2019-04-21T11:03:44.631Z,101866.16
2019-04-21T11:06:18.778Z,101869.58
2019-04-21T11:08:53.899Z,101873.05
2019-04-21T11:11:23.916Z,101864.31
2019-04-21T11:13:54.848Z,101858.38
2019-04-21T11:16:26.982Z,101862.24
2019-04-21T11:18:57.939Z,101855.38
2019-04-21T11:21:29.213Z,101849.84
2019-04-21T11:23:59.398Z,101844.70
2019-04-21T11:26:29.920Z,101841.80
2019-04-21T11:29:01.089Z,101839.98
2019-04-21T11:31:31.369Z,101842.25
2019-04-21T11:34:01.521Z,101840.59
2019-04-21T11:36:31.686Z,101829.83
2019-04-21T11:39:30.739Z,101829.52
2019-04-21T11:41:51.989Z,101823.95
2019-04-21T11:44:24.615Z,101820.68
2019-04-21T11:46:56.380Z,101813.75
2019-04-21T11:49:31.982Z,101816.34
2019-04-21T11:52:00.783Z,101815.66
2019-04-21T11:54:31.094Z,101807.08
2019-04-21T11:57:11.801Z,101813.94
2019-04-21T11:59:35.622Z,101808.98
2019-04-21T12:02:07.722Z,101802.27
2019-04-21T12:04:39.295Z,101802.39
2019-04-21T12:07:09.566Z,101802.30
2019-04-21T12:09:39.802Z,101793.74
2019-04-21T12:12:10.032Z,101787.49
2019-04-21T12:14:40.187Z,101784.45
2019-04-21T12:17:10.357Z,101783.53
2019-04-21T12:19:40.890Z,101779.11
2019-04-21T12:22:20.192Z,101782.47
2019-04-21T12:24:43.176Z,101783.77
2019-04-21T12:27:14.055Z,101774.90
2019-04-21T12:29:44.301Z,101765.57
2019-04-21T12:32:33.868Z,101764.59
2019-04-21T12:35:06.006Z,101763.38
2019-04-21T12:37:42.819Z,101758.20
2019-04-21T12:40:14.763Z,101750.69
2019-04-21T12:42:45.522Z,101750.09
2019-04-21T12:45:17.297Z,101740.95
2019-04-21T12:47:57.959Z,101743.30
2019-04-21T12:50:27.792Z,101741.23
2019-04-21T12:52:58.025Z,101737.02
2019-04-21T12:55:36.631Z,101729.88
2019-04-21T12:58:03.479Z,101724.80
2019-04-21T13:00:33.805Z,101723.98
2019-04-21T13:03:04.052Z,101713.42
2019-04-21T13:05:39.868Z,101711.13
2019-04-21T13:08:09.353Z,101706.09
2019-04-21T13:10:40.202Z,101695.07
2019-04-21T13:13:10.452Z,101687.75
2019-04-21T13:15:40.631Z,101686.52
2019-04-21T13:18:12.230Z,101680.93
2019-04-21T13:20:42.571Z,101687.78
2019-04-21T13:23:13.840Z,101680.41
2019-04-21T13:25:44.012Z,101667.66
2019-04-21T13:28:14.651Z,101671.33
2019-04-21T13:30:46.300Z,101669.59
2019-04-21T13:33:16.464Z,101665.41
2019-04-21T13:35:50.950Z,101663.91
2019-04-21T13:38:32.610Z,101657.38
2019-04-21T13:41:17.484Z,101649.45
2019-04-21T13:43:37.137Z,101649.20
2019-04-21T13:46:08.060Z,101647.04
2019-04-21T13:48:38.331Z,101646.72
2019-04-21T13:51:09.122Z,101640.16
2019-04-21T13:53:41.789Z,101631.94
2019-04-21T13:56:11.993Z,101632.06
2019-04-21T13:58:42.310Z,101635.36
2019-04-21T14:01:13.737Z,101629.25
2019-04-21T14:03:44.118Z,101625.17
2019-04-21T14:06:14.221Z,101629.62
2019-04-21T14:08:45.373Z,101631.53
2019-04-21T14:11:17.535Z,101623.80
2019-04-21T14:13:48.268Z,101618.49
2019-04-21T14:16:18.512Z,101613.50
2019-04-21T14:18:49.616Z,101611.98
2019-04-21T14:21:23.126Z,101602.70
2019-04-21T14:23:53.925Z,101607.11
2019-04-21T14:26:26.817Z,101597.38
2019-04-21T14:28:57.046Z,101600.07
2019-04-21T14:31:28.430Z,101597.00
2019-04-21T14:34:00.166Z,101589.81
2019-04-21T14:36:39.762Z,101586.11
2019-04-21T14:39:24.488Z,101584.48
2019-04-21T14:42:15.913Z,101584.86
2019-04-21T14:45:30.691Z,101579.80
2019-04-21T14:48:48.791Z,101584.04
2019-04-21T15:02:03.913Z,101562.70
2019-04-21T15:07:33.003Z,101519.56
2019-04-21T15:10:36.810Z,101552.23
2019-04-21T15:13:17.350Z,101557.71
2019-04-21T15:13:35.557Z,101563.92
2019-04-21T15:16:29.071Z,101513.70
2019-04-21T15:19:20.449Z,101554.41
2019-04-21T15:22:06.221Z,101550.02
2019-04-21T15:24:38.295Z,101544.03
2019-04-21T15:41:26.856Z,101478.14
2019-04-21T15:47:04.034Z,101517.12
2019-04-21T15:50:30.290Z,101518.95
2019-04-21T15:56:40.432Z,101511.27
2019-04-21T16:02:42.536Z,101502.48
2019-04-21T16:05:16.920Z,101500.48
2019-04-21T16:07:56.200Z,101506.06
2019-04-21T16:10:43.426Z,101505.56
2019-04-21T16:13:09.682Z,101496.84
2019-04-21T16:18:34.235Z,101487.14
2019-04-21T16:21:06.039Z,101489.98
2019-04-21T16:23:40.510Z,101485.14
2019-04-21T16:26:10.905Z,101487.87
2019-04-21T16:28:41.681Z,101483.72
2019-04-21T16:31:12.353Z,101481.13
2019-04-21T16:33:43.222Z,101479.77
2019-04-21T16:36:15.071Z,101477.02
2019-04-21T16:38:49.368Z,101477.74
2019-04-21T16:41:20.308Z,101474.19
2019-04-21T16:43:51.379Z,101473.30
2019-04-21T16:46:21.677Z,101467.67
2019-04-21T16:48:53.749Z,101464.77
2019-04-21T16:51:24.250Z,101460.58
2019-04-21T16:54:01.915Z,101462.22
2019-04-21T16:56:47.841Z,101455.56
2019-04-21T16:59:26.464Z,101462.03
2019-04-21T17:01:58.731Z,101458.65
2019-04-21T17:04:36.210Z,101462.05
2019-04-21T17:07:26.231Z,101459.36
2019-04-21T17:09:56.843Z,101458.98
2019-04-21T17:12:30.661Z,101460.70
2019-04-21T17:15:18.737Z,101455.91
2019-04-21T17:17:54.345Z,101453.84
2019-04-21T17:20:21.551Z,101453.13
2019-04-21T17:22:39.560Z,101459.55
2019-04-21T17:25:10.841Z,101451.27
2019-04-21T17:27:41.197Z,101455.14
2019-04-21T17:30:12.930Z,101458.62
2019-04-21T17:32:48.400Z,101459.43
2019-04-21T18:18:05.182Z,101460.16
2019-04-21T18:36:06.674Z,101471.22
2019-04-21T18:43:35.638Z,101473.13
2019-04-21T18:53:36.506Z,101471.55
2019-04-21T18:57:49.924Z,101477.14
2019-04-21T19:00:32.747Z,101471.08
2019-04-21T19:03:39.880Z,101476.36
2019-04-21T19:06:10.841Z,101479.50
2019-04-21T19:08:59.223Z,101480.72
2019-04-21T19:11:28.579Z,101486.36
2019-04-21T19:14:28.494Z,101483.86
2019-04-21T19:16:53.886Z,101477.48
2019-04-21T19:21:58.711Z,101480.13
2019-04-21T19:24:30.596Z,101479.81
2019-04-21T19:27:03.203Z,101478.73
2019-04-21T19:29:28.736Z,101483.48
2019-04-21T19:32:03.983Z,101484.50
2019-04-21T19:34:22.368Z,101473.97
2019-04-21T19:36:52.004Z,101480.43
2019-04-21T19:39:36.420Z,101476.58
2019-04-21T19:42:00.308Z,101465.20
2019-04-21T19:44:38.209Z,101471.51
2019-04-21T19:47:10.532Z,101466.37
2019-04-21T19:49:49.623Z,101462.40
2019-04-21T19:52:05.279Z,101460.77
2019-04-21T19:54:36.338Z,101461.44
2019-04-21T19:57:02.892Z,101463.82
2019-04-21T19:59:41.740Z,101459.84
2019-04-21T20:02:06.935Z,101463.04
2019-04-21T20:04:43.970Z,101472.88
2019-04-21T20:07:24.398Z,101464.20
2019-04-21T20:10:05.172Z,101457.37
2019-04-21T20:12:36.926Z,101462.72
2019-04-21T20:15:14.846Z,101463.00
2019-04-21T20:17:34.786Z,101463.84
2019-04-21T20:19:50.110Z,101462.20
2019-04-21T20:22:23.995Z,101459.31
2019-04-21T20:25:01.467Z,101451.10
2019-04-21T20:27:36.236Z,101454.27
2019-04-21T20:30:15.164Z,101454.14
2019-04-21T20:32:49.108Z,101451.08
2019-04-21T20:35:23.062Z,101443.67
2019-04-21T20:37:47.712Z,101446.23
2019-04-21T20:40:19.611Z,101439.66
2019-04-21T20:42:50.961Z,101437.83
2019-04-21T20:47:48.800Z,101439.88
2019-04-21T20:50:29.849Z,101440.00
2019-04-21T20:53:05.977Z,101438.63
2019-04-21T20:55:35.404Z,101444.00
2019-04-21T20:58:04.257Z,101435.22
2019-04-21T21:00:54.503Z,101442.30
2019-04-21T21:03:20.988Z,101434.88
2019-04-21T21:05:42.426Z,101433.91
2019-04-21T21:08:26.036Z,101432.73
2019-04-21T21:10:53.247Z,101433.70
2019-04-21T21:13:31.121Z,101426.79
2019-04-21T21:16:11.929Z,101420.62
2019-04-21T21:18:48.143Z,101428.14
2019-04-21T21:21:04.857Z,101424.50
2019-04-21T21:23:37.150Z,101432.03
2019-04-21T21:26:11.471Z,101425.94
2019-04-21T21:28:37.227Z,101431.28
2019-04-21T21:31:13.216Z,101430.36
2019-04-21T21:33:54.233Z,101433.10
2019-04-21T21:36:28.612Z,101430.10
2019-04-21T21:38:55.971Z,101429.24
2019-04-21T21:41:13.821Z,101424.89
2019-04-21T21:43:37.772Z,101425.39
2019-04-21T21:46:26.646Z,101430.23
2019-04-21T21:48:51.703Z,101424.89
2019-04-21T21:51:20.455Z,101426.74
2019-04-21T21:53:45.697Z,101425.45
2019-04-21T21:56:26.864Z,101420.18
2019-04-21T21:59:01.157Z,101418.14
2019-04-21T22:01:38.002Z,101421.20
2019-04-21T22:04:12.700Z,101415.13
2019-04-21T22:06:44.653Z,101419.98
2019-04-21T22:09:10.501Z,101421.77
2019-04-21T22:11:42.218Z,101419.91
2019-04-21T22:14:23.041Z,101417.04
2019-04-21T22:17:06.186Z,101417.68
2019-04-21T22:19:48.607Z,101413.73
2019-04-21T22:22:09.598Z,101420.46
2019-04-21T22:24:39.905Z,101424.10
2019-04-21T22:26:55.322Z,101418.45
2019-04-21T22:29:48.142Z,101421.14
2019-04-21T22:32:20.892Z,101418.56
2019-04-21T22:34:54.680Z,101408.86
2019-04-21T22:37:35.024Z,101407.97
2019-04-21T22:40:04.467Z,101407.99
2019-04-21T22:42:32.064Z,101402.34
2019-04-21T22:44:56.546Z,101404.69
2019-04-21T22:47:32.619Z,101403.90
2019-04-21T22:49:58.945Z,101404.73
2019-04-21T22:52:30.478Z,101408.71
2019-04-21T22:55:08.525Z,101403.92
2019-04-21T22:57:41.696Z,101404.02
2019-04-21T23:00:10.749Z,101394.70
2019-04-21T23:02:39.292Z,101396.80
2019-04-21T23:05:11.114Z,101398.20
2019-04-21T23:07:51.228Z,101395.69
2019-04-21T23:10:13.657Z,101390.02
2019-04-21T23:12:44.016Z,101390.37
2019-04-21T23:15:19.050Z,101391.20
2019-04-21T23:18:06.496Z,101395.69
2019-04-21T23:20:38.744Z,101397.00
2019-04-21T23:23:11.886Z,101396.02
2019-04-21T23:25:40.556Z,101390.75
2019-04-21T23:28:10.119Z,101398.80
2019-04-21T23:30:50.089Z,101400.12
2019-04-21T23:33:06.062Z,101401.06
2019-04-21T23:35:36.759Z,101405.41
2019-04-21T23:38:05.370Z,101399.67
2019-04-21T23:40:35.214Z,101402.30
2019-04-21T23:43:09.576Z,101401.38
2019-04-21T23:45:40.906Z,101404.85
2019-04-21T23:48:23.554Z,101401.38
2019-04-21T23:50:50.455Z,101397.05
2019-04-21T23:53:13.266Z,101393.52
2019-04-21T23:55:43.446Z,101389.42
2019-04-21T23:58:21.604Z,101386.84
